sensor_id;sensor_type;location;lat;lon;timestamp;temperature;humidity
8424;DHT22;4249;49.072;9.770;2022-12-07T00:01:27;3.30;1.00
8424;DHT22;4249;49.072;9.770;2022-12-07T00:04:17;3.30;1.00
8424;DHT22;4249;49.072;9.770;2022-12-07T00:07:04;3.30;1.00
8424;DHT22;4249;49.072;9.770;2022-12-07T00:09:51;3.30;1.00
8424;DHT22;4249;49.072;9.770;2022-12-07T00:12:38;3.30;1.00
8424;DHT22;4249;49.072;9.770;2022-12-07T00:15:26;3.30;1.00
8424;DHT22;4249;49.072;9.770;2022-12-07T00:18:14;3.30;1.00
8424;DHT22;4249;49.072;9.770;2022-12-07T00:21:02;3.30;1.00
8424;DHT22;4249;49.072;9.770;2022-12-07T00:23:51;3.30;1.00
8424;DHT22;4249;49.072;9.770;2022-12-07T00:26:40;3.30;1.00
8424;DHT22;4249;49.072;9.770;2022-12-07T00:29:27;3.30;1.00
8424;DHT22;4249;49.072;9.770;2022-12-07T00:32:14;3.30;1.00
8424;DHT22;4249;49.072;9.770;2022-12-07T00:35:03;3.30;1.00
8424;DHT22;4249;49.072;9.770;2022-12-07T00:37:50;3.30;1.00
8424;DHT22;4249;49.072;9.770;2022-12-07T00:40:37;3.30;1.00
8424;DHT22;4249;49.072;9.770;2022-12-07T00:43:25;3.20;1.00
8424;DHT22;4249;49.072;9.770;2022-12-07T00:46:13;3.20;1.00
8424;DHT22;4249;49.072;9.770;2022-12-07T00:49:01;3.20;1.00
8424;DHT22;4249;49.072;9.770;2022-12-07T00:51:50;3.20;1.00
8424;DHT22;4249;49.072;9.770;2022-12-07T00:54:37;3.20;1.00
8424;DHT22;4249;49.072;9.770;2022-12-07T00:57:25;3.10;1.00
8424;DHT22;4249;49.072;9.770;2022-12-07T01:00:12;3.10;1.00
8424;DHT22;4249;49.072;9.770;2022-12-07T01:02:59;3.10;1.00
8424;DHT22;4249;49.072;9.770;2022-12-07T01:05:51;3.10;1.00
8424;DHT22;4249;49.072;9.770;2022-12-07T01:08:39;3.10;1.00
8424;DHT22;4249;49.072;9.770;2022-12-07T01:11:29;3.10;1.00
8424;DHT22;4249;49.072;9.770;2022-12-07T01:14:16;3.10;1.00
8424;DHT22;4249;49.072;9.770;2022-12-07T01:17:03;3.10;1.00
8424;DHT22;4249;49.072;9.770;2022-12-07T01:19:50;3.10;1.00
8424;DHT22;4249;49.072;9.770;2022-12-07T01:22:37;3.00;1.00
8424;DHT22;4249;49.072;9.770;2022-12-07T01:25:26;3.00;1.00
8424;DHT22;4249;49.072;9.770;2022-12-07T01:28:13;3.00;1.00
8424;DHT22;4249;49.072;9.770;2022-12-07T01:31:02;2.90;1.00
8424;DHT22;4249;49.072;9.770;2022-12-07T01:33:52;2.90;1.00
8424;DHT22;4249;49.072;9.770;2022-12-07T01:36:40;2.80;1.00
8424;DHT22;4249;49.072;9.770;2022-12-07T01:39:27;2.80;1.00
8424;DHT22;4249;49.072;9.770;2022-12-07T01:42:15;2.80;1.00
8424;DHT22;4249;49.072;9.770;2022-12-07T01:45:36;2.90;1.00
8424;DHT22;4249;49.072;9.770;2022-12-07T01:48:28;2.90;1.00
8424;DHT22;4249;49.072;9.770;2022-12-07T01:51:17;2.90;1.00
8424;DHT22;4249;49.072;9.770;2022-12-07T01:54:04;2.90;1.00
8424;DHT22;4249;49.072;9.770;2022-12-07T01:56:54;3.00;1.00
8424;DHT22;4249;49.072;9.770;2022-12-07T01:59:45;3.00;1.00
8424;DHT22;4249;49.072;9.770;2022-12-07T02:02:36;2.90;1.00
8424;DHT22;4249;49.072;9.770;2022-12-07T02:05:25;3.00;1.00
8424;DHT22;4249;49.072;9.770;2022-12-07T02:08:13;3.10;1.00
8424;DHT22;4249;49.072;9.770;2022-12-07T02:11:01;3.00;1.00
8424;DHT22;4249;49.072;9.770;2022-12-07T02:13:49;3.10;1.00
8424;DHT22;4249;49.072;9.770;2022-12-07T02:16:46;3.00;1.00
8424;DHT22;4249;49.072;9.770;2022-12-07T02:20:04;3.00;1.00
8424;DHT22;4249;49.072;9.770;2022-12-07T02:27:04;2.90;1.00
8424;DHT22;4249;49.072;9.770;2022-12-07T02:29:58;2.90;1.00
8424;DHT22;4249;49.072;9.770;2022-12-07T02:32:53;2.90;1.00
8424;DHT22;4249;49.072;9.770;2022-12-07T02:35:46;2.80;1.00
8424;DHT22;4249;49.072;9.770;2022-12-07T02:38:38;2.90;1.00
8424;DHT22;4249;49.072;9.770;2022-12-07T02:41:29;2.90;1.00
8424;DHT22;4249;49.072;9.770;2022-12-07T02:44:20;2.90;1.00
8424;DHT22;4249;49.072;9.770;2022-12-07T02:47:13;2.80;1.00
8424;DHT22;4249;49.072;9.770;2022-12-07T02:50:04;2.70;1.00
8424;DHT22;4249;49.072;9.770;2022-12-07T02:52:51;2.60;1.00
8424;DHT22;4249;49.072;9.770;2022-12-07T02:55:41;2.60;1.00
8424;DHT22;4249;49.072;9.770;2022-12-07T02:58:35;2.70;1.00
8424;DHT22;4249;49.072;9.770;2022-12-07T03:01:30;2.60;1.00
8424;DHT22;4249;49.072;9.770;2022-12-07T03:04:32;2.60;1.00
8424;DHT22;4249;49.072;9.770;2022-12-07T03:07:30;2.50;1.00
8424;DHT22;4249;49.072;9.770;2022-12-07T03:10:27;2.30;1.00
8424;DHT22;4249;49.072;9.770;2022-12-07T03:13:22;2.30;1.00
8424;DHT22;4249;49.072;9.770;2022-12-07T03:16:14;2.30;1.00
8424;DHT22;4249;49.072;9.770;2022-12-07T03:19:06;2.20;1.00
8424;DHT22;4249;49.072;9.770;2022-12-07T03:22:00;2.20;1.00
8424;DHT22;4249;49.072;9.770;2022-12-07T03:24:50;2.20;1.00
8424;DHT22;4249;49.072;9.770;2022-12-07T03:27:41;2.30;1.00
8424;DHT22;4249;49.072;9.770;2022-12-07T03:30:34;2.20;1.00
8424;DHT22;4249;49.072;9.770;2022-12-07T03:33:26;2.30;1.00
8424;DHT22;4249;49.072;9.770;2022-12-07T03:36:20;2.20;1.00
8424;DHT22;4249;49.072;9.770;2022-12-07T03:39:19;2.30;1.00
8424;DHT22;4249;49.072;9.770;2022-12-07T03:42:10;2.40;1.00
8424;DHT22;4249;49.072;9.770;2022-12-07T03:44:57;2.40;1.00
8424;DHT22;4249;49.072;9.770;2022-12-07T03:47:48;2.40;1.00
8424;DHT22;4249;49.072;9.770;2022-12-07T03:50:42;2.40;1.00
8424;DHT22;4249;49.072;9.770;2022-12-07T03:53:34;2.40;1.00
8424;DHT22;4249;49.072;9.770;2022-12-07T03:56:24;2.50;1.00
8424;DHT22;4249;49.072;9.770;2022-12-07T03:59:13;2.40;1.00
8424;DHT22;4249;49.072;9.770;2022-12-07T04:02:03;2.40;1.00
8424;DHT22;4249;49.072;9.770;2022-12-07T04:04:50;2.40;1.00
8424;DHT22;4249;49.072;9.770;2022-12-07T04:07:37;2.40;1.00
8424;DHT22;4249;49.072;9.770;2022-12-07T04:10:25;2.40;1.00
8424;DHT22;4249;49.072;9.770;2022-12-07T04:13:13;2.30;1.00
8424;DHT22;4249;49.072;9.770;2022-12-07T04:16:01;2.20;1.00
8424;DHT22;4249;49.072;9.770;2022-12-07T04:18:48;2.30;1.00
8424;DHT22;4249;49.072;9.770;2022-12-07T04:21:35;2.20;1.00
8424;DHT22;4249;49.072;9.770;2022-12-07T04:24:22;2.20;1.00
8424;DHT22;4249;49.072;9.770;2022-12-07T04:27:09;2.20;1.00
8424;DHT22;4249;49.072;9.770;2022-12-07T04:29:58;2.20;1.00
8424;DHT22;4249;49.072;9.770;2022-12-07T04:32:45;2.30;1.00
8424;DHT22;4249;49.072;9.770;2022-12-07T04:35:33;2.30;1.00
8424;DHT22;4249;49.072;9.770;2022-12-07T04:38:20;2.40;1.00
8424;DHT22;4249;49.072;9.770;2022-12-07T04:41:08;2.50;1.00
8424;DHT22;4249;49.072;9.770;2022-12-07T04:43:56;2.50;1.00
8424;DHT22;4249;49.072;9.770;2022-12-07T04:46:46;2.50;1.00
8424;DHT22;4249;49.072;9.770;2022-12-07T04:49:33;2.50;1.00
8424;DHT22;4249;49.072;9.770;2022-12-07T04:52:20;2.60;1.00
8424;DHT22;4249;49.072;9.770;2022-12-07T04:55:08;2.50;1.00
8424;DHT22;4249;49.072;9.770;2022-12-07T04:57:55;2.60;1.00
8424;DHT22;4249;49.072;9.770;2022-12-07T05:00:42;2.60;1.00
8424;DHT22;4249;49.072;9.770;2022-12-07T05:03:31;2.60;1.00
8424;DHT22;4249;49.072;9.770;2022-12-07T05:06:18;2.70;1.00
8424;DHT22;4249;49.072;9.770;2022-12-07T05:09:06;2.60;1.00
8424;DHT22;4249;49.072;9.770;2022-12-07T05:11:53;2.70;1.00
8424;DHT22;4249;49.072;9.770;2022-12-07T05:14:40;2.70;1.00
8424;DHT22;4249;49.072;9.770;2022-12-07T05:17:28;2.70;1.00
8424;DHT22;4249;49.072;9.770;2022-12-07T05:20:17;2.60;1.00
8424;DHT22;4249;49.072;9.770;2022-12-07T05:23:04;2.60;1.00
8424;DHT22;4249;49.072;9.770;2022-12-07T05:25:51;2.70;1.00
8424;DHT22;4249;49.072;9.770;2022-12-07T05:28:38;2.60;1.00
8424;DHT22;4249;49.072;9.770;2022-12-07T05:31:26;2.60;1.00
8424;DHT22;4249;49.072;9.770;2022-12-07T05:34:14;2.60;1.00
8424;DHT22;4249;49.072;9.770;2022-12-07T05:37:03;2.60;1.00
8424;DHT22;4249;49.072;9.770;2022-12-07T05:39:50;2.60;1.00
8424;DHT22;4249;49.072;9.770;2022-12-07T05:42:37;2.60;1.00
8424;DHT22;4249;49.072;9.770;2022-12-07T05:45:24;2.50;1.00
8424;DHT22;4249;49.072;9.770;2022-12-07T05:48:11;2.50;1.00
8424;DHT22;4249;49.072;9.770;2022-12-07T05:50:59;2.50;1.00
8424;DHT22;4249;49.072;9.770;2022-12-07T05:53:47;2.50;1.00
8424;DHT22;4249;49.072;9.770;2022-12-07T05:56:34;2.50;1.00
8424;DHT22;4249;49.072;9.770;2022-12-07T05:59:21;2.50;1.00
8424;DHT22;4249;49.072;9.770;2022-12-07T06:02:15;2.60;1.00
8424;DHT22;4249;49.072;9.770;2022-12-07T06:05:02;2.60;1.00
8424;DHT22;4249;49.072;9.770;2022-12-07T06:07:49;2.60;1.00
8424;DHT22;4249;49.072;9.770;2022-12-07T06:10:38;2.50;1.00
8424;DHT22;4249;49.072;9.770;2022-12-07T06:13:25;2.50;1.00
8424;DHT22;4249;49.072;9.770;2022-12-07T06:16:11;2.50;1.00
8424;DHT22;4249;49.072;9.770;2022-12-07T06:18:58;2.60;1.00
8424;DHT22;4249;49.072;9.770;2022-12-07T06:21:46;2.50;1.00
8424;DHT22;4249;49.072;9.770;2022-12-07T06:24:33;2.60;1.00
8424;DHT22;4249;49.072;9.770;2022-12-07T06:27:22;2.60;1.00
8424;DHT22;4249;49.072;9.770;2022-12-07T06:30:09;2.60;1.00
8424;DHT22;4249;49.072;9.770;2022-12-07T06:32:56;2.50;1.00
8424;DHT22;4249;49.072;9.770;2022-12-07T06:35:43;2.50;1.00
8424;DHT22;4249;49.072;9.770;2022-12-07T06:38:31;2.50;1.00
8424;DHT22;4249;49.072;9.770;2022-12-07T06:41:19;2.60;1.00
8424;DHT22;4249;49.072;9.770;2022-12-07T06:43:48;2.60;1.00
8424;DHT22;4249;49.072;9.770;2022-12-07T06:46:15;2.60;1.00
8424;DHT22;4249;49.072;9.770;2022-12-07T06:48:43;2.60;1.00
8424;DHT22;4249;49.072;9.770;2022-12-07T06:51:11;2.60;1.00
8424;DHT22;4249;49.072;9.770;2022-12-07T06:53:38;2.60;1.00
8424;DHT22;4249;49.072;9.770;2022-12-07T06:56:06;2.60;1.00
8424;DHT22;4249;49.072;9.770;2022-12-07T06:58:33;2.60;1.00
8424;DHT22;4249;49.072;9.770;2022-12-07T07:01:01;2.60;1.00
8424;DHT22;4249;49.072;9.770;2022-12-07T07:03:28;2.60;1.00
8424;DHT22;4249;49.072;9.770;2022-12-07T07:05:55;2.70;99.90
8424;DHT22;4249;49.072;9.770;2022-12-07T07:08:22;2.70;99.90
8424;DHT22;4249;49.072;9.770;2022-12-07T07:10:49;2.70;99.90
8424;DHT22;4249;49.072;9.770;2022-12-07T07:13:16;2.80;1.00
8424;DHT22;4249;49.072;9.770;2022-12-07T07:15:43;2.70;1.00
8424;DHT22;4249;49.072;9.770;2022-12-07T07:18:11;2.70;94.70
8424;DHT22;4249;49.072;9.770;2022-12-07T07:20:38;2.80;1.00
8424;DHT22;4249;49.072;9.770;2022-12-07T07:23:06;2.70;1.00
8424;DHT22;4249;49.072;9.770;2022-12-07T07:25:33;2.70;1.00
8424;DHT22;4249;49.072;9.770;2022-12-07T07:28:00;2.80;1.00
8424;DHT22;4249;49.072;9.770;2022-12-07T07:30:27;2.80;1.00
8424;DHT22;4249;49.072;9.770;2022-12-07T07:32:56;2.80;1.00
8424;DHT22;4249;49.072;9.770;2022-12-07T07:35:25;2.80;1.00
8424;DHT22;4249;49.072;9.770;2022-12-07T07:37:52;2.90;99.90
8424;DHT22;4249;49.072;9.770;2022-12-07T07:40:19;2.90;1.00
8424;DHT22;4249;49.072;9.770;2022-12-07T07:42:47;3.00;1.00
8424;DHT22;4249;49.072;9.770;2022-12-07T07:45:15;3.00;99.90
8424;DHT22;4249;49.072;9.770;2022-12-07T07:47:42;3.10;99.90
8424;DHT22;4249;49.072;9.770;2022-12-07T07:50:09;3.10;99.90
8424;DHT22;4249;49.072;9.770;2022-12-07T07:52:38;3.10;1.00
8424;DHT22;4249;49.072;9.770;2022-12-07T07:55:05;3.10;1.00
8424;DHT22;4249;49.072;9.770;2022-12-07T07:57:34;3.10;1.00
8424;DHT22;4249;49.072;9.770;2022-12-07T08:00:03;3.10;16.30
8424;DHT22;4249;49.072;9.770;2022-12-07T08:02:31;3.10;99.90
8424;DHT22;4249;49.072;9.770;2022-12-07T08:04:58;3.10;99.90
8424;DHT22;4249;49.072;9.770;2022-12-07T08:07:24;3.10;99.90
8424;DHT22;4249;49.072;9.770;2022-12-07T08:09:53;3.10;1.00
8424;DHT22;4249;49.072;9.770;2022-12-07T08:12:20;3.20;1.00
8424;DHT22;4249;49.072;9.770;2022-12-07T08:14:47;3.30;1.00
8424;DHT22;4249;49.072;9.770;2022-12-07T08:17:14;3.30;1.00
8424;DHT22;4249;49.072;9.770;2022-12-07T08:19:40;3.40;1.00
8424;DHT22;4249;49.072;9.770;2022-12-07T08:22:07;3.50;99.90
8424;DHT22;4249;49.072;9.770;2022-12-07T08:24:34;3.60;99.90
8424;DHT22;4249;49.072;9.770;2022-12-07T08:27:03;3.70;1.00
8424;DHT22;4249;49.072;9.770;2022-12-07T08:29:30;3.80;99.90
8424;DHT22;4249;49.072;9.770;2022-12-07T08:31:57;3.90;99.90
8424;DHT22;4249;49.072;9.770;2022-12-07T08:34:27;4.00;99.90
8424;DHT22;4249;49.072;9.770;2022-12-07T08:36:53;4.10;99.90
8424;DHT22;4249;49.072;9.770;2022-12-07T08:39:20;4.10;99.90
8424;DHT22;4249;49.072;9.770;2022-12-07T08:41:47;4.10;1.00
8424;DHT22;4249;49.072;9.770;2022-12-07T08:44:15;4.10;99.90
8424;DHT22;4249;49.072;9.770;2022-12-07T08:46:45;4.20;1.00
8424;DHT22;4249;49.072;9.770;2022-12-07T08:49:15;4.10;99.90
8424;DHT22;4249;49.072;9.770;2022-12-07T08:51:43;4.20;1.00
8424;DHT22;4249;49.072;9.770;2022-12-07T08:54:12;4.20;1.00
8424;DHT22;4249;49.072;9.770;2022-12-07T08:56:41;4.20;59.90
8424;DHT22;4249;49.072;9.770;2022-12-07T08:59:08;4.20;54.20
8424;DHT22;4249;49.072;9.770;2022-12-07T09:01:36;4.20;1.00
8424;DHT22;4249;49.072;9.770;2022-12-07T09:04:03;4.30;1.00
8424;DHT22;4249;49.072;9.770;2022-12-07T09:06:30;4.40;99.90
8424;DHT22;4249;49.072;9.770;2022-12-07T09:09:00;4.30;99.90
8424;DHT22;4249;49.072;9.770;2022-12-07T09:11:27;4.30;96.50
8424;DHT22;4249;49.072;9.770;2022-12-07T09:13:54;4.30;48.00
8424;DHT22;4249;49.072;9.770;2022-12-07T09:16:21;4.30;1.00
8424;DHT22;4249;49.072;9.770;2022-12-07T09:18:50;4.30;1.00
8424;DHT22;4249;49.072;9.770;2022-12-07T09:21:17;4.30;1.00
8424;DHT22;4249;49.072;9.770;2022-12-07T09:23:44;4.30;1.00
8424;DHT22;4249;49.072;9.770;2022-12-07T09:26:11;4.40;1.00
8424;DHT22;4249;49.072;9.770;2022-12-07T09:28:38;4.40;1.00
8424;DHT22;4249;49.072;9.770;2022-12-07T09:31:05;4.40;1.00
8424;DHT22;4249;49.072;9.770;2022-12-07T09:33:33;4.50;1.00
8424;DHT22;4249;49.072;9.770;2022-12-07T09:36:03;4.50;1.00
8424;DHT22;4249;49.072;9.770;2022-12-07T09:38:31;4.60;1.00
8424;DHT22;4249;49.072;9.770;2022-12-07T09:41:04;4.70;1.00
8424;DHT22;4249;49.072;9.770;2022-12-07T09:43:35;4.80;1.00
8424;DHT22;4249;49.072;9.770;2022-12-07T09:46:03;4.80;1.00
8424;DHT22;4249;49.072;9.770;2022-12-07T09:48:33;4.80;1.00
8424;DHT22;4249;49.072;9.770;2022-12-07T09:51:13;4.80;1.00
8424;DHT22;4249;49.072;9.770;2022-12-07T09:53:41;4.70;1.00
8424;DHT22;4249;49.072;9.770;2022-12-07T09:56:10;4.70;1.00
8424;DHT22;4249;49.072;9.770;2022-12-07T09:58:38;4.70;1.00
8424;DHT22;4249;49.072;9.770;2022-12-07T10:01:11;4.70;1.00
8424;DHT22;4249;49.072;9.770;2022-12-07T10:03:40;4.60;1.00
8424;DHT22;4249;49.072;9.770;2022-12-07T10:06:12;4.30;1.00
8424;DHT22;4249;49.072;9.770;2022-12-07T10:08:39;4.40;1.00
8424;DHT22;4249;49.072;9.770;2022-12-07T10:11:08;4.40;99.90
8424;DHT22;4249;49.072;9.770;2022-12-07T10:13:37;4.50;99.90
8424;DHT22;4249;49.072;9.770;2022-12-07T10:16:06;4.50;13.90
8424;DHT22;4249;49.072;9.770;2022-12-07T10:18:35;4.50;1.00
8424;DHT22;4249;49.072;9.770;2022-12-07T10:21:19;4.50;1.00
8424;DHT22;4249;49.072;9.770;2022-12-07T10:24:00;4.40;1.00
8424;DHT22;4249;49.072;9.770;2022-12-07T10:26:31;4.30;1.00
8424;DHT22;4249;49.072;9.770;2022-12-07T10:29:00;4.30;1.00
8424;DHT22;4249;49.072;9.770;2022-12-07T10:31:29;4.20;99.90
8424;DHT22;4249;49.072;9.770;2022-12-07T10:33:58;4.10;1.00
8424;DHT22;4249;49.072;9.770;2022-12-07T10:36:30;4.10;1.00
8424;DHT22;4249;49.072;9.770;2022-12-07T10:39:03;4.10;99.90
8424;DHT22;4249;49.072;9.770;2022-12-07T10:41:30;4.10;99.90
8424;DHT22;4249;49.072;9.770;2022-12-07T10:43:58;4.10;99.90
8424;DHT22;4249;49.072;9.770;2022-12-07T10:46:50;4.10;99.90
8424;DHT22;4249;49.072;9.770;2022-12-07T10:49:41;4.10;99.90
8424;DHT22;4249;49.072;9.770;2022-12-07T10:52:21;4.00;1.00
8424;DHT22;4249;49.072;9.770;2022-12-07T10:55:03;4.00;1.00
8424;DHT22;4249;49.072;9.770;2022-12-07T10:57:43;4.10;99.90
8424;DHT22;4249;49.072;9.770;2022-12-07T11:00:17;4.10;1.00
8424;DHT22;4249;49.072;9.770;2022-12-07T11:05:40;4.20;1.00
8424;DHT22;4249;49.072;9.770;2022-12-07T11:08:19;4.30;99.90
8424;DHT22;4249;49.072;9.770;2022-12-07T11:10:52;4.30;99.90
8424;DHT22;4249;49.072;9.770;2022-12-07T11:13:27;4.30;1.00
8424;DHT22;4249;49.072;9.770;2022-12-07T11:16:06;4.20;1.00
8424;DHT22;4249;49.072;9.770;2022-12-07T11:18:43;4.30;1.00
8424;DHT22;4249;49.072;9.770;2022-12-07T11:21:20;4.20;1.00
8424;DHT22;4249;49.072;9.770;2022-12-07T11:23:56;4.10;1.00
8424;DHT22;4249;49.072;9.770;2022-12-07T11:26:40;4.10;1.00
8424;DHT22;4249;49.072;9.770;2022-12-07T11:29:23;4.10;1.00
8424;DHT22;4249;49.072;9.770;2022-12-07T11:32:00;4.00;1.00
8424;DHT22;4249;49.072;9.770;2022-12-07T11:34:39;3.90;1.00
8424;DHT22;4249;49.072;9.770;2022-12-07T11:37:11;3.90;99.90
8424;DHT22;4249;49.072;9.770;2022-12-07T11:39:46;3.90;99.90
8424;DHT22;4249;49.072;9.770;2022-12-07T11:42:20;3.90;1.00
8424;DHT22;4249;49.072;9.770;2022-12-07T11:44:52;3.90;99.90
8424;DHT22;4249;49.072;9.770;2022-12-07T11:47:25;3.80;1.00
8424;DHT22;4249;49.072;9.770;2022-12-07T11:50:01;3.80;1.00
8424;DHT22;4249;49.072;9.770;2022-12-07T11:52:39;3.90;1.00
8424;DHT22;4249;49.072;9.770;2022-12-07T11:55:18;3.90;1.00
8424;DHT22;4249;49.072;9.770;2022-12-07T11:57:50;4.00;1.00
8424;DHT22;4249;49.072;9.770;2022-12-07T12:00:18;4.10;1.00
8424;DHT22;4249;49.072;9.770;2022-12-07T12:02:49;4.20;99.90
8424;DHT22;4249;49.072;9.770;2022-12-07T12:05:21;4.10;1.00
8424;DHT22;4249;49.072;9.770;2022-12-07T12:07:56;4.00;1.00
8424;DHT22;4249;49.072;9.770;2022-12-07T12:10:38;3.80;1.00
8424;DHT22;4249;49.072;9.770;2022-12-07T12:16:11;3.90;1.00
8424;DHT22;4249;49.072;9.770;2022-12-07T12:18:48;4.00;1.00
8424;DHT22;4249;49.072;9.770;2022-12-07T12:21:20;4.00;1.00
8424;DHT22;4249;49.072;9.770;2022-12-07T12:23:55;4.00;1.00
8424;DHT22;4249;49.072;9.770;2022-12-07T12:26:26;4.00;1.00
8424;DHT22;4249;49.072;9.770;2022-12-07T12:28:56;4.10;1.00
8424;DHT22;4249;49.072;9.770;2022-12-07T12:31:33;4.10;1.00
8424;DHT22;4249;49.072;9.770;2022-12-07T12:34:04;4.10;99.90
8424;DHT22;4249;49.072;9.770;2022-12-07T12:36:45;4.10;99.90
8424;DHT22;4249;49.072;9.770;2022-12-07T12:39:13;4.00;99.90
8424;DHT22;4249;49.072;9.770;2022-12-07T12:42:18;4.00;64.20
8424;DHT22;4249;49.072;9.770;2022-12-07T12:47:57;4.00;1.00
8424;DHT22;4249;49.072;9.770;2022-12-07T12:50:30;4.00;1.00
8424;DHT22;4249;49.072;9.770;2022-12-07T12:56:15;4.20;63.10
8424;DHT22;4249;49.072;9.770;2022-12-07T12:58:48;4.20;1.00
8424;DHT22;4249;49.072;9.770;2022-12-07T13:01:41;4.20;1.00
8424;DHT22;4249;49.072;9.770;2022-12-07T13:07:53;4.50;92.70
8424;DHT22;4249;49.072;9.770;2022-12-07T13:10:24;4.50;1.00
8424;DHT22;4249;49.072;9.770;2022-12-07T13:12:58;4.50;1.00
8424;DHT22;4249;49.072;9.770;2022-12-07T13:15:35;4.50;90.70
8424;DHT22;4249;49.072;9.770;2022-12-07T13:18:24;4.50;1.00
8424;DHT22;4249;49.072;9.770;2022-12-07T13:20:54;4.60;1.00
8424;DHT22;4249;49.072;9.770;2022-12-07T13:23:26;4.60;1.00
8424;DHT22;4249;49.072;9.770;2022-12-07T13:26:12;4.60;1.00
8424;DHT22;4249;49.072;9.770;2022-12-07T13:28:43;4.60;99.90
8424;DHT22;4249;49.072;9.770;2022-12-07T13:31:34;4.60;99.90
8424;DHT22;4249;49.072;9.770;2022-12-07T13:34:02;4.50;99.90
8424;DHT22;4249;49.072;9.770;2022-12-07T13:36:33;4.50;1.00
8424;DHT22;4249;49.072;9.770;2022-12-07T13:39:17;4.50;99.90
8424;DHT22;4249;49.072;9.770;2022-12-07T13:41:46;4.50;1.00
8424;DHT22;4249;49.072;9.770;2022-12-07T13:44:20;4.40;56.40
8424;DHT22;4249;49.072;9.770;2022-12-07T13:46:54;4.50;99.50
8424;DHT22;4249;49.072;9.770;2022-12-07T13:49:26;4.40;1.00
8424;DHT22;4249;49.072;9.770;2022-12-07T13:51:53;4.40;1.00
8424;DHT22;4249;49.072;9.770;2022-12-07T13:54:22;4.40;1.00
8424;DHT22;4249;49.072;9.770;2022-12-07T13:56:50;4.40;4.50
8424;DHT22;4249;49.072;9.770;2022-12-07T13:59:20;4.50;1.00
8424;DHT22;4249;49.072;9.770;2022-12-07T14:01:51;4.40;1.00
8424;DHT22;4249;49.072;9.770;2022-12-07T14:04:34;4.40;90.00
8424;DHT22;4249;49.072;9.770;2022-12-07T14:09:54;4.40;99.90
8424;DHT22;4249;49.072;9.770;2022-12-07T14:12:21;4.40;98.00
8424;DHT22;4249;49.072;9.770;2022-12-07T14:14:48;4.30;1.00
8424;DHT22;4249;49.072;9.770;2022-12-07T14:17:19;4.30;99.90
8424;DHT22;4249;49.072;9.770;2022-12-07T14:19:50;4.40;1.00
8424;DHT22;4249;49.072;9.770;2022-12-07T14:22:24;4.50;1.00
8424;DHT22;4249;49.072;9.770;2022-12-07T14:25:09;4.50;1.00
8424;DHT22;4249;49.072;9.770;2022-12-07T14:27:39;4.50;1.00
8424;DHT22;4249;49.072;9.770;2022-12-07T14:30:15;4.50;1.00
8424;DHT22;4249;49.072;9.770;2022-12-07T14:32:44;4.40;1.00
8424;DHT22;4249;49.072;9.770;2022-12-07T14:35:15;4.40;1.00
8424;DHT22;4249;49.072;9.770;2022-12-07T14:37:45;4.40;1.00
8424;DHT22;4249;49.072;9.770;2022-12-07T14:40:14;4.40;1.00
8424;DHT22;4249;49.072;9.770;2022-12-07T14:42:42;4.30;1.00
8424;DHT22;4249;49.072;9.770;2022-12-07T14:45:15;4.30;1.00
8424;DHT22;4249;49.072;9.770;2022-12-07T14:47:45;4.20;99.90
8424;DHT22;4249;49.072;9.770;2022-12-07T14:50:13;4.30;1.00
8424;DHT22;4249;49.072;9.770;2022-12-07T14:52:42;4.30;1.00
8424;DHT22;4249;49.072;9.770;2022-12-07T14:55:18;4.30;1.00
8424;DHT22;4249;49.072;9.770;2022-12-07T14:57:46;4.20;1.00
8424;DHT22;4249;49.072;9.770;2022-12-07T15:00:15;4.10;99.90
8424;DHT22;4249;49.072;9.770;2022-12-07T15:02:43;4.00;1.00
8424;DHT22;4249;49.072;9.770;2022-12-07T15:05:13;4.00;1.00
8424;DHT22;4249;49.072;9.770;2022-12-07T15:07:40;3.90;1.00
8424;DHT22;4249;49.072;9.770;2022-12-07T15:10:14;3.90;99.90
8424;DHT22;4249;49.072;9.770;2022-12-07T15:12:41;3.90;99.90
8424;DHT22;4249;49.072;9.770;2022-12-07T15:15:10;4.00;99.90
8424;DHT22;4249;49.072;9.770;2022-12-07T15:17:37;3.90;99.90
8424;DHT22;4249;49.072;9.770;2022-12-07T15:20:05;3.90;1.00
8424;DHT22;4249;49.072;9.770;2022-12-07T15:22:35;3.90;1.00
8424;DHT22;4249;49.072;9.770;2022-12-07T15:25:02;3.80;1.00
8424;DHT22;4249;49.072;9.770;2022-12-07T15:27:30;3.80;99.90
8424;DHT22;4249;49.072;9.770;2022-12-07T15:29:57;3.70;99.90
8424;DHT22;4249;49.072;9.770;2022-12-07T15:32:24;3.70;1.00
8424;DHT22;4249;49.072;9.770;2022-12-07T15:34:51;3.70;1.00
8424;DHT22;4249;49.072;9.770;2022-12-07T15:37:18;3.70;1.00
8424;DHT22;4249;49.072;9.770;2022-12-07T15:39:46;3.70;1.00
8424;DHT22;4249;49.072;9.770;2022-12-07T15:42:13;3.70;1.00
8424;DHT22;4249;49.072;9.770;2022-12-07T15:44:40;3.80;99.90
8424;DHT22;4249;49.072;9.770;2022-12-07T15:47:24;3.80;99.90
8424;DHT22;4249;49.072;9.770;2022-12-07T15:49:52;3.70;99.90
8424;DHT22;4249;49.072;9.770;2022-12-07T15:52:19;3.70;1.00
8424;DHT22;4249;49.072;9.770;2022-12-07T15:54:47;3.70;1.00
8424;DHT22;4249;49.072;9.770;2022-12-07T15:57:14;3.70;1.00
8424;DHT22;4249;49.072;9.770;2022-12-07T15:59:41;3.70;1.00
8424;DHT22;4249;49.072;9.770;2022-12-07T16:02:08;3.60;1.00
8424;DHT22;4249;49.072;9.770;2022-12-07T16:04:36;3.60;1.00
8424;DHT22;4249;49.072;9.770;2022-12-07T16:07:04;3.60;1.00
8424;DHT22;4249;49.072;9.770;2022-12-07T16:09:32;3.60;1.00
8424;DHT22;4249;49.072;9.770;2022-12-07T16:12:01;3.60;1.00
8424;DHT22;4249;49.072;9.770;2022-12-07T16:14:28;3.70;1.00
8424;DHT22;4249;49.072;9.770;2022-12-07T16:16:54;3.60;1.00
8424;DHT22;4249;49.072;9.770;2022-12-07T16:19:21;3.60;1.00
8424;DHT22;4249;49.072;9.770;2022-12-07T16:21:49;3.50;1.00
8424;DHT22;4249;49.072;9.770;2022-12-07T16:24:16;3.50;1.00
8424;DHT22;4249;49.072;9.770;2022-12-07T16:26:43;3.50;1.00
8424;DHT22;4249;49.072;9.770;2022-12-07T16:29:13;3.50;1.00
8424;DHT22;4249;49.072;9.770;2022-12-07T16:31:41;3.60;1.00
8424;DHT22;4249;49.072;9.770;2022-12-07T16:34:08;3.60;1.00
8424;DHT22;4249;49.072;9.770;2022-12-07T16:36:35;3.60;1.00
8424;DHT22;4249;49.072;9.770;2022-12-07T16:39:03;3.50;1.00
8424;DHT22;4249;49.072;9.770;2022-12-07T16:41:30;3.50;1.00
8424;DHT22;4249;49.072;9.770;2022-12-07T16:43:57;3.40;1.00
8424;DHT22;4249;49.072;9.770;2022-12-07T16:46:31;3.50;1.00
8424;DHT22;4249;49.072;9.770;2022-12-07T16:48:58;3.40;1.00
8424;DHT22;4249;49.072;9.770;2022-12-07T16:51:25;3.40;1.00
8424;DHT22;4249;49.072;9.770;2022-12-07T16:53:53;3.50;1.00
8424;DHT22;4249;49.072;9.770;2022-12-07T16:56:20;3.50;1.00
8424;DHT22;4249;49.072;9.770;2022-12-07T16:58:47;3.50;1.00
8424;DHT22;4249;49.072;9.770;2022-12-07T17:01:17;3.50;1.00
8424;DHT22;4249;49.072;9.770;2022-12-07T17:03:46;3.50;1.00
8424;DHT22;4249;49.072;9.770;2022-12-07T17:06:14;3.50;1.00
8424;DHT22;4249;49.072;9.770;2022-12-07T17:08:42;3.50;1.00
8424;DHT22;4249;49.072;9.770;2022-12-07T17:11:11;3.40;1.00
8424;DHT22;4249;49.072;9.770;2022-12-07T17:13:38;3.40;1.00
8424;DHT22;4249;49.072;9.770;2022-12-07T17:16:23;3.40;1.00
8424;DHT22;4249;49.072;9.770;2022-12-07T17:18:52;3.40;1.00
8424;DHT22;4249;49.072;9.770;2022-12-07T17:21:19;3.40;4.70
8424;DHT22;4249;49.072;9.770;2022-12-07T17:23:46;3.50;1.00
8424;DHT22;4249;49.072;9.770;2022-12-07T17:26:16;3.50;1.00
8424;DHT22;4249;49.072;9.770;2022-12-07T17:28:43;3.50;1.00
8424;DHT22;4249;49.072;9.770;2022-12-07T17:31:13;3.50;1.00
8424;DHT22;4249;49.072;9.770;2022-12-07T17:33:40;3.50;1.00
8424;DHT22;4249;49.072;9.770;2022-12-07T17:36:12;3.50;1.00
8424;DHT22;4249;49.072;9.770;2022-12-07T17:38:40;3.50;1.00
8424;DHT22;4249;49.072;9.770;2022-12-07T17:41:13;3.50;1.00
8424;DHT22;4249;49.072;9.770;2022-12-07T17:44:00;3.50;1.00
8424;DHT22;4249;49.072;9.770;2022-12-07T17:46:27;3.40;1.00
8424;DHT22;4249;49.072;9.770;2022-12-07T17:48:54;3.40;1.00
8424;DHT22;4249;49.072;9.770;2022-12-07T17:51:22;3.40;1.00
8424;DHT22;4249;49.072;9.770;2022-12-07T17:54:10;3.40;1.00
8424;DHT22;4249;49.072;9.770;2022-12-07T17:56:37;3.50;1.00
8424;DHT22;4249;49.072;9.770;2022-12-07T17:59:04;3.50;1.00
8424;DHT22;4249;49.072;9.770;2022-12-07T18:01:31;3.50;1.00